Time;durP1;ratioP1;P1;durP2;ratioP2;P2;SDS_P1;SDS_P2;PMS_P1;PMS_P2;Temp;Humidity;BMP_temperature;BMP_pressure;BME280_temperature;BME280_humidity;BME280_pressure;Samples;Min_cycle;Max_cycle;Signal;HPM_P1;HPM_P2
2022/01/26 00:06:40;;;;;;;15.65;7.40;;;5.90;82.50;;;;;;4993274;28;20166;-74
2022/01/26 00:09:07;;;;;;;15.27;7.55;;;5.90;82.30;;;;;;4994960;28;20378;-74
2022/01/26 00:11:36;;;;;;;17.38;7.45;;;5.80;82.50;;;;;;4992963;28;20544;-73
2022/01/26 00:14:08;;;;;;;19.55;7.97;;;5.90;82.30;;;;;;4993385;28;20117;-75
2022/01/26 00:19:05;;;;;;;16.05;8.02;;;5.90;82.40;;;;;;4992856;28;20030;-74
2022/01/26 00:21:37;;;;;;;15.18;7.57;;;5.80;82.20;;;;;;5009895;28;20018;-75
2022/01/26 00:26:59;;;;;;;15.82;7.72;;;5.80;82.30;;;;;;4994893;28;20030;-74
2022/01/26 00:29:21;;;;;;;15.27;7.32;;;5.80;82.30;;;;;;4994583;28;20038;-74
2022/01/26 00:40:10;;;;;;;16.73;8.02;;;5.90;82.40;;;;;;5011904;28;20475;-74
2022/01/26 00:42:39;;;;;;;17.40;8.02;;;5.90;82.40;;;;;;4998741;28;20382;-74
2022/01/26 00:45:06;;;;;;;19.58;8.90;;;5.90;82.30;;;;;;5000907;28;20026;-74
2022/01/26 00:47:32;;;;;;;15.43;7.30;;;5.80;82.20;;;;;;5000912;28;20050;-74
2022/01/26 00:50:02;;;;;;;16.02;7.53;;;5.80;82.20;;;;;;4997836;28;20504;-74
2022/01/26 00:52:39;;;;;;;16.33;8.32;;;5.80;82.40;;;;;;4997956;28;20022;-74
2022/01/26 00:55:10;;;;;;;15.77;7.45;;;5.80;82.50;;;;;;4995647;28;20497;-74
2022/01/26 00:57:35;;;;;;;15.90;8.02;;;5.90;82.80;;;;;;4996450;28;20081;-73
2022/01/26 01:00:03;;;;;;;18.67;7.97;;;5.90;82.60;;;;;;5001939;28;20022;-74
2022/01/26 01:02:31;;;;;;;16.65;7.53;;;5.90;82.60;;;;;;5003676;28;20042;-74
2022/01/26 01:04:59;;;;;;;14.30;7.20;;;5.90;82.20;;;;;;4997600;28;20022;-73
2022/01/26 01:07:25;;;;;;;15.32;7.95;;;5.90;82.30;;;;;;4997922;28;20030;-75
2022/01/26 01:09:51;;;;;;;13.48;6.97;;;5.90;82.10;;;;;;5004661;28;20082;-74
2022/01/26 01:12:17;;;;;;;14.32;6.72;;;5.90;82.40;;;;;;5011108;28;20038;-72
2022/01/26 01:14:44;;;;;;;15.85;7.55;;;5.90;82.10;;;;;;5001686;28;20528;-73
2022/01/26 01:17:20;;;;;;;17.15;7.95;;;5.90;81.80;;;;;;4996211;28;20129;-75
2022/01/26 01:20:03;;;;;;;14.95;7.35;;;5.90;82.00;;;;;;4997405;28;20019;-75
2022/01/26 01:28:24;;;;;;;15.05;6.82;;;5.80;82.00;;;;;;5011239;28;20041;-74
2022/01/26 01:30:50;;;;;;;14.65;7.05;;;5.80;81.80;;;;;;4998838;28;20030;-73
2022/01/26 01:33:20;;;;;;;14.30;7.00;;;5.80;81.90;;;;;;4996909;28;20424;-74
2022/01/26 01:35:47;;;;;;;13.75;6.57;;;5.80;81.50;;;;;;4996926;28;20054;-74
2022/01/26 01:38:16;;;;;;;11.43;6.10;;;5.80;81.90;;;;;;4999209;28;20500;-73
2022/01/26 01:40:46;;;;;;;13.55;6.97;;;5.80;81.90;;;;;;4998577;28;20042;-74
2022/01/26 01:43:13;;;;;;;13.40;6.45;;;5.80;81.70;;;;;;4996459;28;20033;-74
2022/01/26 01:45:47;;;;;;;13.75;6.57;;;5.80;81.80;;;;;;4993806;28;20027;-74
2022/01/26 01:48:18;;;;;;;15.85;7.22;;;5.80;81.80;;;;;;4998180;28;20062;-74
2022/01/26 01:50:44;;;;;;;12.82;6.25;;;5.80;81.70;;;;;;4996208;28;20516;-74
2022/01/26 01:53:12;;;;;;;13.57;6.95;;;5.80;81.90;;;;;;4996569;28;20030;-74
2022/01/26 01:55:40;;;;;;;14.23;6.70;;;5.70;81.40;;;;;;4997115;28;20403;-74
2022/01/26 01:58:07;;;;;;;13.23;6.57;;;5.80;81.70;;;;;;4994965;28;20097;-74
2022/01/26 02:00:33;;;;;;;13.65;7.07;;;5.80;81.90;;;;;;5002918;28;20119;-74
2022/01/26 02:03:00;;;;;;;13.18;6.85;;;5.70;81.20;;;;;;4998850;28;20034;-74
2022/01/26 02:05:26;;;;;;;14.32;7.43;;;5.70;81.30;;;;;;4995283;28;20019;-74
2022/01/26 02:07:52;;;;;;;15.35;6.80;;;5.60;81.20;;;;;;4995868;28;20038;-74
2022/01/26 02:10:21;;;;;;;12.02;6.00;;;5.60;81.00;;;;;;4996476;28;20121;-74
2022/01/26 02:12:50;;;;;;;12.85;5.63;;;5.60;82.00;;;;;;5005162;28;20464;-74
2022/01/26 02:15:22;;;;;;;11.93;6.22;;;5.70;81.60;;;;;;4998687;28;20026;-74
2022/01/26 02:55:42;;;;;;;15.52;7.68;;;5.50;81.60;;;;;;4995066;28;20041;-74
2022/01/26 03:01:44;;;;;;;16.50;7.03;;;5.30;81.50;;;;;;5003334;28;20041;-74
2022/01/26 03:03:38;;;;;;;13.32;7.35;;;5.20;81.80;;;;;;5005352;28;20041;-74
2022/01/26 03:06:09;;;;;;;10.80;5.78;;;5.10;82.50;;;;;;4996829;28;20022;-74
2022/01/26 03:08:40;;;;;;;11.00;5.72;;;5.10;82.40;;;;;;4994358;28;20022;-74
2022/01/26 03:11:10;;;;;;;14.70;5.85;;;5.20;82.30;;;;;;4995501;28;20046;-74
2022/01/26 03:13:41;;;;;;;13.82;6.45;;;5.20;82.50;;;;;;4995590;28;20025;-74
2022/01/26 03:16:19;;;;;;;11.20;5.97;;;5.20;81.50;;;;;;4993881;28;20023;-74
2022/01/26 03:21:41;;;;;;;13.40;6.25;;;5.00;81.80;;;;;;4994709;28;20031;-74
2022/01/26 03:34:27;;;;;;;7.97;4.30;;;5.10;82.50;;;;;;4994748;28;20092;-75
2022/01/26 03:36:59;;;;;;;9.23;4.90;;;5.10;82.40;;;;;;5010470;28;20437;-74
2022/01/26 03:39:26;;;;;;;9.57;4.60;;;5.10;82.00;;;;;;4994752;28;20519;-74
2022/01/26 03:42:02;;;;;;;8.40;4.95;;;5.10;81.60;;;;;;5001086;28;20537;-74
2022/01/26 03:44:28;;;;;;;8.05;4.63;;;5.00;81.00;;;;;;5001163;28;20518;-75
2022/01/26 03:46:54;;;;;;;8.95;4.30;;;4.90;81.70;;;;;;4997357;28;20026;-75
2022/01/26 03:49:20;;;;;;;8.90;4.72;;;4.90;81.90;;;;;;4993083;28;20025;-75
2022/01/26 03:51:45;;;;;;;10.98;6.40;;;5.00;81.70;;;;;;5008057;28;20425;-75
2022/01/26 03:54:12;;;;;;;10.57;5.85;;;4.80;80.80;;;;;;4995469;28;20412;-75
2022/01/26 03:56:39;;;;;;;9.50;4.57;;;4.70;81.00;;;;;;4994868;28;20029;-74
2022/01/26 03:59:05;;;;;;;8.35;4.50;;;4.70;82.10;;;;;;4998226;28;20033;-75
2022/01/26 04:01:32;;;;;;;8.35;4.55;;;4.70;81.50;;;;;;5005369;28;20033;-74
2022/01/26 04:03:57;;;;;;;9.00;4.85;;;4.70;81.40;;;;;;4992696;28;20039;-75
2022/01/26 04:06:24;;;;;;;10.52;5.20;;;4.80;81.40;;;;;;4993202;28;20027;-75
2022/01/26 04:08:50;;;;;;;6.72;3.97;;;4.60;80.40;;;;;;4998707;28;20018;-74
2022/01/26 04:13:49;;;;;;;6.90;4.25;;;4.50;80.80;;;;;;4998404;28;20473;-74
2022/01/26 04:16:14;;;;;;;7.35;4.28;;;4.60;81.50;;;;;;4997355;28;20022;-74
2022/01/26 04:18:41;;;;;;;10.10;5.22;;;4.70;81.40;;;;;;4997114;28;20392;-74
2022/01/26 04:21:24;;;;;;;8.43;5.30;;;4.70;81.00;;;;;;4998586;28;20138;-74
2022/01/26 04:23:58;;;;;;;10.80;5.20;;;4.50;80.60;;;;;;4998374;28;20043;-74
2022/01/26 04:27:16;;;;;;;9.90;5.80;;;4.50;80.50;;;;;;4998568;28;20045;-74
2022/01/26 04:29:47;;;;;;;8.05;4.90;;;4.10;80.00;;;;;;4993068;28;20478;-74
2022/01/26 04:32:07;;;;;;;9.55;5.68;;;4.10;81.50;;;;;;4995932;28;20066;-75
2022/01/26 04:34:34;;;;;;;9.18;5.75;;;4.00;80.90;;;;;;4998312;28;20053;-74
2022/01/26 04:39:45;;;;;;;8.68;4.85;;;4.00;81.20;;;;;;5000242;28;20046;-74
2022/01/26 04:42:19;;;;;;;10.02;5.47;;;4.00;81.50;;;;;;5000873;28;20030;-74
2022/01/26 04:44:55;;;;;;;10.15;5.63;;;4.10;81.80;;;;;;4999538;28;20408;-74
2022/01/26 04:47:21;;;;;;;10.90;5.32;;;4.00;80.80;;;;;;5000482;28;20059;-74
2022/01/26 04:49:47;;;;;;;9.32;4.90;;;3.90;80.80;;;;;;4999970;28;20030;-74
2022/01/26 04:52:12;;;;;;;13.35;6.63;;;3.80;81.40;;;;;;5001143;28;20034;-74
2022/01/26 04:54:38;;;;;;;12.80;6.15;;;3.80;81.00;;;;;;5009750;28;20022;-74
2022/01/26 04:57:04;;;;;;;13.05;6.35;;;3.70;81.60;;;;;;4999441;28;20031;-74
2022/01/26 04:59:29;;;;;;;12.32;7.05;;;3.70;81.50;;;;;;5002040;28;20061;-74
2022/01/26 05:01:55;;;;;;;13.50;7.38;;;3.70;81.50;;;;;;5001110;28;20030;-74
2022/01/26 05:04:20;;;;;;;12.88;6.95;;;3.60;81.60;;;;;;4995731;28;20240;-74
2022/01/26 05:06:46;;;;;;;16.00;8.35;;;3.50;81.90;;;;;;4999559;28;20567;-74
2022/01/26 05:09:12;;;;;;;12.77;6.75;;;3.50;82.10;;;;;;4997773;28;20038;-74
2022/01/26 05:11:41;;;;;;;17.83;8.20;;;3.50;82.10;;;;;;4997491;28;20424;-74
2022/01/26 05:14:07;;;;;;;15.43;7.82;;;3.60;82.80;;;;;;4997522;28;20027;-74
2022/01/26 05:16:33;;;;;;;11.30;6.03;;;3.60;82.80;;;;;;4997872;28;20041;-74
2022/01/26 05:19:00;;;;;;;12.38;6.57;;;3.70;82.80;;;;;;4995141;28;20387;-74
2022/01/26 05:21:28;;;;;;;10.30;6.22;;;3.60;82.00;;;;;;4995707;28;20095;-74
2022/01/26 05:23:53;;;;;;;12.48;6.32;;;3.70;82.60;;;;;;4995781;28;20038;-74
2022/01/26 05:26:19;;;;;;;13.52;7.63;;;3.80;82.50;;;;;;5000297;28;20065;-74
2022/01/26 05:28:45;;;;;;;13.38;6.68;;;3.80;82.30;;;;;;4998779;28;20096;-74
2022/01/26 05:31:11;;;;;;;12.68;6.18;;;3.80;81.90;;;;;;4994957;28;20666;-74
2022/01/26 05:33:37;;;;;;;13.18;6.43;;;3.80;82.30;;;;;;4997636;28;20501;-73
2022/01/26 05:36:03;;;;;;;12.43;6.07;;;3.80;81.60;;;;;;4999084;28;20073;-74
2022/01/26 05:38:29;;;;;;;11.25;6.20;;;3.70;81.40;;;;;;5004428;28;20021;-74
2022/01/26 05:41:01;;;;;;;11.48;6.22;;;3.70;82.50;;;;;;5007586;28;20113;-73
2022/01/26 05:43:28;;;;;;;11.75;6.13;;;3.80;82.50;;;;;;4996511;28;20044;-75
2022/01/26 05:45:58;;;;;;;10.85;5.82;;;3.80;83.00;;;;;;4994780;28;20035;-74
2022/01/26 05:48:23;;;;;;;11.18;5.55;;;3.90;82.30;;;;;;4996766;28;20029;-74
2022/01/26 05:50:52;;;;;;;12.13;5.95;;;3.90;82.00;;;;;;4997191;28;20026;-74
2022/01/26 05:53:21;;;;;;;11.30;5.28;;;3.90;81.90;;;;;;4995901;28;20401;-74
2022/01/26 05:55:49;;;;;;;11.02;5.63;;;3.80;81.90;;;;;;4997120;28;20045;-75
2022/01/26 05:58:14;;;;;;;11.98;5.65;;;3.80;81.70;;;;;;4996198;28;20492;-74
2022/01/26 06:00:40;;;;;;;12.15;5.75;;;3.80;82.00;;;;;;4995388;28;20034;-74
2022/01/26 06:03:05;;;;;;;16.23;7.05;;;3.70;81.70;;;;;;4997652;28;20034;-75
2022/01/26 06:05:31;;;;;;;11.95;5.93;;;3.70;81.80;;;;;;4996889;28;20531;-75
2022/01/26 06:07:57;;;;;;;12.52;6.15;;;3.70;82.20;;;;;;4997532;28;20034;-74
2022/01/26 06:10:22;;;;;;;12.50;6.07;;;3.70;82.40;;;;;;4997433;28;20114;-75
2022/01/26 06:12:48;;;;;;;11.55;6.07;;;3.70;82.90;;;;;;4993872;28;20037;-75
2022/01/26 06:15:13;;;;;;;12.68;6.50;;;3.80;82.80;;;;;;4996865;28;20034;-75
2022/01/26 06:17:39;;;;;;;14.07;6.97;;;3.90;82.30;;;;;;4996723;28;20033;-75
2022/01/26 06:20:05;;;;;;;13.75;6.55;;;3.80;82.00;;;;;;4996806;28;20056;-75
2022/01/26 06:22:33;;;;;;;13.10;6.57;;;3.80;82.00;;;;;;4996546;28;20500;-75
2022/01/26 06:25:04;;;;;;;11.82;5.85;;;3.80;82.30;;;;;;4994762;28;20023;-75
2022/01/26 06:27:30;;;;;;;11.63;5.75;;;3.90;82.40;;;;;;4998334;28;20026;-75
2022/01/26 06:29:55;;;;;;;11.07;5.60;;;4.00;82.50;;;;;;4998040;28;20042;-75
2022/01/26 06:32:21;;;;;;;10.88;5.55;;;4.00;82.30;;;;;;4999211;28;20087;-75
2022/01/26 06:34:47;;;;;;;12.45;6.18;;;4.10;82.00;;;;;;4998461;28;20064;-75
2022/01/26 06:37:16;;;;;;;13.63;5.93;;;4.10;82.10;;;;;;4995354;28;20140;-75
2022/01/26 06:39:42;;;;;;;13.63;6.05;;;4.10;81.90;;;;;;4998377;28;20030;-75
2022/01/26 06:42:13;;;;;;;17.38;7.18;;;4.20;81.90;;;;;;4998489;28;20053;-75
2022/01/26 06:44:50;;;;;;;13.65;7.07;;;4.10;81.70;;;;;;4999001;28;20030;-73
2022/01/26 06:47:35;;;;;;;14.40;7.57;;;4.20;81.90;;;;;;4998861;28;20030;-74
2022/01/26 06:50:02;;;;;;;12.98;6.30;;;4.10;81.40;;;;;;4999112;28;20025;-74
2022/01/26 06:52:28;;;;;;;13.25;6.28;;;4.10;81.60;;;;;;4995463;28;20481;-74
2022/01/26 06:54:53;;;;;;;13.85;6.93;;;4.10;82.20;;;;;;4996913;28;20038;-73
2022/01/26 06:57:19;;;;;;;14.95;6.80;;;4.20;82.20;;;;;;4997057;28;20030;-74
2022/01/26 06:59:45;;;;;;;14.05;6.35;;;4.30;82.20;;;;;;4998405;28;20600;-73
2022/01/26 07:02:11;;;;;;;14.10;6.50;;;4.40;82.10;;;;;;4997158;28;20129;-74
2022/01/26 07:04:36;;;;;;;14.18;6.50;;;4.40;81.90;;;;;;4996450;28;20113;-73
2022/01/26 07:07:02;;;;;;;14.82;7.07;;;4.40;81.90;;;;;;4996143;28;20025;-73
2022/01/26 07:09:28;;;;;;;18.13;8.30;;;4.40;81.50;;;;;;4997763;28;20488;-74
2022/01/26 07:11:53;;;;;;;15.25;8.10;;;4.40;81.00;;;;;;4997905;28;20077;-73
2022/01/26 07:19:46;;;;;;;15.40;7.32;;;4.40;81.20;;;;;;4998333;28;20088;-73
2022/01/26 07:20:15;;;;;;;13.65;6.57;;;4.40;81.70;;;;;;4998175;28;20084;-73
2022/01/26 07:22:40;;;;;;;14.48;6.60;;;4.40;81.30;;;;;;5005068;28;20112;-73
2022/01/26 07:25:06;;;;;;;14.35;6.55;;;4.60;81.70;;;;;;5008634;28;20548;-73
2022/01/26 07:27:32;;;;;;;13.57;6.63;;;4.50;81.70;;;;;;4994695;28;20037;-73
2022/01/26 07:29:59;;;;;;;19.25;8.57;;;4.60;82.00;;;;;;4995268;28;20037;-74
2022/01/26 07:32:27;;;;;;;21.25;9.43;;;4.60;80.90;;;;;;4995252;28;20034;-75
2022/01/26 07:34:52;;;;;;;15.85;7.25;;;4.50;80.60;;;;;;4995352;28;20113;-74
2022/01/26 07:37:20;;;;;;;16.90;7.68;;;4.40;80.90;;;;;;4995069;28;20133;-75
2022/01/26 07:40:00;;;;;;;14.45;6.70;;;4.50;81.50;;;;;;5007863;28;20413;-74
2022/01/26 07:42:25;;;;;;;17.05;7.30;;;4.60;81.20;;;;;;4994425;28;20065;-73
2022/01/26 07:44:51;;;;;;;15.90;7.20;;;4.60;81.20;;;;;;4995263;28;20493;-74
2022/01/26 07:47:17;;;;;;;20.50;7.90;;;4.60;81.20;;;;;;4995287;28;20125;-74
2022/01/26 07:49:42;;;;;;;17.48;7.65;;;4.60;80.60;;;;;;4995159;28;20034;-73
2022/01/26 07:52:08;;;;;;;16.98;7.55;;;4.50;80.60;;;;;;5009171;28;20036;-74
2022/01/26 07:54:34;;;;;;;23.63;10.25;;;4.40;80.60;;;;;;4993752;28;20539;-73
2022/01/26 07:57:01;;;;;;;18.83;8.75;;;4.20;80.50;;;;;;4995145;28;20559;-74
2022/01/26 07:59:27;;;;;;;16.95;8.20;;;4.20;81.20;;;;;;4995027;28;20027;-73
2022/01/26 08:01:53;;;;;;;27.35;11.43;;;4.20;81.30;;;;;;4994770;28;20081;-73
2022/01/26 08:04:19;;;;;;;16.58;7.60;;;4.10;80.80;;;;;;4994724;28;20042;-73
2022/01/26 08:06:44;;;;;;;17.42;7.80;;;4.10;82.00;;;;;;4992657;28;20473;-73
2022/01/26 08:09:11;;;;;;;21.77;9.35;;;4.20;82.00;;;;;;5007707;28;20044;-74
2022/01/26 08:11:37;;;;;;;17.27;8.20;;;4.20;82.00;;;;;;5002890;28;20026;-73
2022/01/26 08:14:03;;;;;;;19.35;8.60;;;4.20;81.90;;;;;;4994605;28;20121;-74
2022/01/26 08:16:28;;;;;;;19.55;8.60;;;4.30;81.50;;;;;;4994970;28;20104;-74
2022/01/26 08:18:54;;;;;;;20.38;9.25;;;4.20;81.60;;;;;;4992607;28;20033;-74
2022/01/26 08:21:20;;;;;;;20.40;9.02;;;4.30;82.00;;;;;;5009171;28;20117;-69
2022/01/26 08:23:47;;;;;;;23.77;9.82;;;4.30;81.70;;;;;;4998327;28;20041;-67
2022/01/26 08:26:18;;;;;;;27.33;11.13;;;4.40;81.50;;;;;;4997455;28;20130;-66
2022/01/26 08:28:49;;;;;;;17.95;8.35;;;4.30;81.40;;;;;;4996192;28;20415;-67
2022/01/26 08:31:15;;;;;;;19.58;8.85;;;4.30;81.70;;;;;;4992798;28;20030;-66
2022/01/26 08:33:40;;;;;;;21.20;9.07;;;4.40;81.80;;;;;;4996534;28;20080;-66
2022/01/26 08:36:06;;;;;;;20.42;9.20;;;4.30;82.30;;;;;;4996807;28;20201;-71
2022/01/26 08:38:32;;;;;;;21.73;9.10;;;4.30;81.70;;;;;;4994389;28;20084;-63
2022/01/26 08:40:57;;;;;;;19.38;8.95;;;4.40;81.80;;;;;;4994641;28;20041;-61
2022/01/26 08:43:23;;;;;;;20.17;8.80;;;4.50;81.50;;;;;;4993501;28;20038;-59
2022/01/26 08:45:49;;;;;;;20.80;9.10;;;4.40;81.10;;;;;;4992276;28;20027;-60
2022/01/26 08:48:14;;;;;;;20.55;8.32;;;4.40;81.70;;;;;;4994718;28;20026;-64
2022/01/26 08:50:40;;;;;;;21.00;8.77;;;4.50;81.50;;;;;;4994572;28;20022;-69
2022/01/26 08:53:06;;;;;;;18.10;9.02;;;4.40;81.40;;;;;;4997749;28;20113;-67
2022/01/26 08:55:33;;;;;;;17.17;7.97;;;4.40;81.70;;;;;;5005838;28;20520;-66
2022/01/26 08:57:59;;;;;;;17.70;7.72;;;4.50;81.90;;;;;;5005538;28;20026;-68
2022/01/26 09:00:24;;;;;;;18.40;8.57;;;4.50;81.20;;;;;;4990547;28;20014;-72
2022/01/26 09:02:51;;;;;;;19.40;8.07;;;4.50;81.50;;;;;;4999817;28;20057;-65
2022/01/26 09:05:17;;;;;;;17.10;7.72;;;4.50;81.80;;;;;;4998643;28;20022;-71
2022/01/26 09:07:44;;;;;;;19.90;9.07;;;4.60;81.90;;;;;;5008864;28;20038;-70
2022/01/26 09:10:10;;;;;;;18.45;7.75;;;4.60;81.80;;;;;;4996293;28;20057;-72
2022/01/26 09:12:40;;;;;;;23.40;10.15;;;4.60;81.50;;;;;;4996216;28;20037;-73
2022/01/26 09:15:07;;;;;;;19.67;8.65;;;4.40;81.10;;;;;;5004594;28;20081;-72
2022/01/26 09:17:34;;;;;;;19.02;8.98;;;4.30;81.50;;;;;;5004785;28;20041;-72
2022/01/26 09:20:04;;;;;;;19.50;8.75;;;4.40;81.90;;;;;;5008628;28;20527;-72
2022/01/26 09:22:30;;;;;;;23.45;10.45;;;4.40;83.00;;;;;;4996380;28;20026;-73
2022/01/26 09:24:56;;;;;;;23.02;10.43;;;4.50;82.10;;;;;;4997119;28;20536;-72
2022/01/26 09:27:21;;;;;;;24.30;9.65;;;4.50;81.50;;;;;;5001687;28;20029;-74
2022/01/26 09:29:47;;;;;;;21.10;9.65;;;4.40;81.90;;;;;;5002674;28;20032;-65
2022/01/26 09:32:14;;;;;;;21.35;9.27;;;4.50;82.10;;;;;;5007875;28;22193;-66
2022/01/26 09:34:41;;;;;;;21.25;10.30;;;4.50;81.70;;;;;;5006525;28;20048;-65
2022/01/26 09:37:10;;;;;;;28.58;11.88;;;4.40;81.70;;;;;;5007951;28;20053;-67
2022/01/26 09:39:38;;;;;;;22.30;10.93;;;4.40;81.90;;;;;;5008336;28;20061;-66
2022/01/26 09:42:05;;;;;;;19.85;9.48;;;4.40;81.90;;;;;;5005480;28;20018;-66
2022/01/26 09:44:31;;;;;;;22.38;10.68;;;4.40;82.30;;;;;;5002026;28;20184;-66
2022/01/26 09:46:57;;;;;;;22.75;10.75;;;4.40;82.00;;;;;;5013194;28;20531;-65
2022/01/26 09:49:29;;;;;;;24.10;10.75;;;4.30;81.70;;;;;;5010804;28;20025;-64
2022/01/26 09:51:58;;;;;;;18.90;9.23;;;4.30;82.00;;;;;;5009290;28;20033;-64
2022/01/26 09:54:30;;;;;;;26.15;11.35;;;4.40;82.60;;;;;;5004978;28;20052;-64
2022/01/26 09:57:00;;;;;;;24.80;11.10;;;4.60;82.70;;;;;;4998326;28;20031;-64
2022/01/26 09:59:26;;;;;;;20.38;9.52;;;4.60;82.20;;;;;;5002075;28;20045;-64
2022/01/26 10:01:51;;;;;;;19.30;8.98;;;4.70;82.10;;;;;;5012387;28;20483;-64
2022/01/26 10:04:21;;;;;;;23.40;9.88;;;4.80;82.20;;;;;;5009495;28;20508;-65
2022/01/26 10:07:02;;;;;;;19.50;9.00;;;4.80;81.70;;;;;;5020154;28;20029;-64
2022/01/26 10:09:57;;;;;;;20.50;9.73;;;4.90;81.50;;;;;;5008920;28;20036;-65
2022/01/26 10:17:45;;;;;;;17.58;8.40;;;4.90;81.30;;;;;;5000969;28;20033;-64
2022/01/26 10:20:17;;;;;;;17.73;8.52;;;5.00;81.50;;;;;;5011329;28;20033;-63
2022/01/26 10:22:44;;;;;;;22.40;9.98;;;5.10;81.80;;;;;;5008228;28;20416;-64
2022/01/26 10:25:12;;;;;;;17.88;8.63;;;5.10;80.20;;;;;;5020193;28;20030;-64
2022/01/26 10:27:49;;;;;;;20.80;9.23;;;5.10;81.10;;;;;;5004196;28;20018;-64
2022/01/26 10:30:17;;;;;;;15.90;8.27;;;5.10;81.00;;;;;;5004741;28;20021;-63
2022/01/26 10:32:45;;;;;;;17.52;8.48;;;5.10;81.10;;;;;;5009296;28;20041;-65
2022/01/26 10:35:13;;;;;;;19.23;8.90;;;5.20;81.20;;;;;;5013818;28;20470;-65
2022/01/26 10:37:50;;;;;;;18.75;8.75;;;5.30;81.30;;;;;;5009778;28;20407;-65
2022/01/26 10:40:20;;;;;;;18.10;8.20;;;5.40;80.70;;;;;;5011129;28;20026;-65
2022/01/26 10:43:10;;;;;;;23.77;9.48;;;5.40;80.40;;;;;;5004502;28;20030;-66
2022/01/26 10:46:00;;;;;;;20.52;9.02;;;5.40;80.10;;;;;;5013228;28;20041;-65
2022/01/26 10:48:39;;;;;;;18.33;8.75;;;5.40;80.30;;;;;;5018605;28;20100;-65
2022/01/26 10:53:50;;;;;;;20.88;9.68;;;5.40;80.00;;;;;;5010224;28;20064;-66
2022/01/26 10:56:16;;;;;;;21.52;9.18;;;5.50;80.40;;;;;;5014545;28;20029;-65
2022/01/26 10:58:42;;;;;;;20.10;8.52;;;5.50;80.70;;;;;;5005312;28;20042;-65
2022/01/26 11:01:08;;;;;;;20.98;10.32;;;5.60;80.70;;;;;;5016018;28;20025;-65
2022/01/26 11:03:34;;;;;;;24.15;10.82;;;5.70;80.50;;;;;;5002813;28;20528;-66
2022/01/26 11:06:02;;;;;;;22.67;10.50;;;5.60;79.20;;;;;;5012060;28;20037;-64
2022/01/26 11:08:29;;;;;;;22.17;10.02;;;5.60;80.10;;;;;;5011564;28;20064;-63
2022/01/26 11:10:55;;;;;;;20.50;9.95;;;5.60;79.90;;;;;;5004068;28;20104;-64
2022/01/26 11:13:30;;;;;;;21.38;9.75;;;5.60;79.20;;;;;;5008245;28;20489;-64
2022/01/26 11:16:10;;;;;;;20.00;9.25;;;5.60;80.00;;;;;;5022688;28;20021;-65
2022/01/26 11:18:53;;;;;;;23.63;10.68;;;5.70;80.00;;;;;;5022667;28;20102;-64
2022/01/26 11:21:35;;;;;;;18.70;9.07;;;5.80;79.80;;;;;;5011228;28;20037;-64
2022/01/26 11:24:21;;;;;;;19.50;9.02;;;5.80;79.80;;;;;;5012209;28;20052;-65
2022/01/26 11:27:04;;;;;;;22.30;10.57;;;5.80;79.40;;;;;;5001254;28;20448;-65
2022/01/26 11:29:34;;;;;;;21.00;9.70;;;5.80;79.10;;;;;;5005491;28;20042;-65
2022/01/26 11:32:12;;;;;;;20.02;9.13;;;5.80;79.50;;;;;;5003153;28;20116;-65
2022/01/26 11:34:39;;;;;;;18.80;9.07;;;5.80;79.20;;;;;;5002453;28;20037;-65
2022/01/26 11:37:14;;;;;;;19.30;9.25;;;5.80;79.40;;;;;;5023746;28;20046;-65
2022/01/26 11:45:14;;;;;;;21.10;9.77;;;5.90;79.20;;;;;;4995308;28;20037;-68
2022/01/26 11:47:57;;;;;;;22.05;9.95;;;5.90;79.10;;;;;;4999982;28;20026;-68
2022/01/26 11:50:22;;;;;;;21.15;9.52;;;6.00;79.20;;;;;;5000600;28;20408;-68
2022/01/26 11:53:23;;;;;;;19.90;9.18;;;6.10;79.40;;;;;;5008215;28;20059;-67
2022/01/26 11:55:51;;;;;;;19.63;9.23;;;6.10;79.60;;;;;;4981146;28;20034;-66
2022/01/26 11:58:43;;;;;;;19.85;9.57;;;6.20;79.30;;;;;;5001942;28;20093;-68
2022/01/26 12:01:16;;;;;;;22.30;9.40;;;6.20;79.10;;;;;;4998186;28;20029;-70
2022/01/26 12:03:55;;;;;;;22.05;9.88;;;6.30;79.10;;;;;;5003562;28;20033;-71
2022/01/26 12:06:35;;;;;;;20.58;9.88;;;6.30;78.90;;;;;;5016187;28;20034;-71
2022/01/26 12:09:02;;;;;;;21.92;9.23;;;6.30;79.10;;;;;;5013820;28;20025;-71
2022/01/26 12:11:29;;;;;;;19.10;9.35;;;6.40;78.80;;;;;;5011246;28;20025;-70
2022/01/26 12:14:05;;;;;;;26.15;10.82;;;6.40;79.10;;;;;;5009947;28;20037;-69
2022/01/26 12:16:39;;;;;;;21.40;10.05;;;6.50;78.60;;;;;;5009967;28;20469;-69
2022/01/26 12:32:09;;;;;;;19.20;9.82;;;6.50;78.50;;;;;;4939900;28;20040;-66
2022/01/26 12:34:09;;;;;;;23.05;10.02;;;6.60;78.30;;;;;;4950230;28;20402;-61
2022/01/26 12:41:11;;;;;;;19.52;9.65;;;6.60;78.70;;;;;;4949669;28;20040;-63
2022/01/26 12:42:26;;;;;;;22.13;10.82;;;6.70;78.40;;;;;;4947829;28;20051;-72
2022/01/26 12:45:02;;;;;;;20.95;10.23;;;6.70;78.20;;;;;;4938547;28;20514;-66
2022/01/26 12:47:29;;;;;;;22.27;9.95;;;6.70;77.90;;;;;;4940810;28;20042;-67
2022/01/26 12:49:57;;;;;;;24.02;10.88;;;6.70;78.50;;;;;;4943984;28;20044;-68
2022/01/26 12:52:24;;;;;;;21.88;10.32;;;6.80;78.70;;;;;;4940681;28;20506;-69
2022/01/26 12:54:50;;;;;;;20.90;10.25;;;6.80;78.20;;;;;;4953872;28;20093;-71
2022/01/26 12:57:16;;;;;;;26.92;10.90;;;6.90;78.60;;;;;;5006378;28;20034;-70
2022/01/26 12:59:43;;;;;;;22.27;10.82;;;6.90;78.00;;;;;;5005676;28;20050;-69
2022/01/26 13:02:09;;;;;;;22.73;10.40;;;7.00;78.30;;;;;;5010695;28;20583;-70
2022/01/26 13:04:35;;;;;;;25.85;12.00;;;7.00;78.30;;;;;;5004366;28;20029;-69
2022/01/26 13:07:01;;;;;;;22.42;10.70;;;7.10;78.30;;;;;;5020261;28;20021;-69
2022/01/26 13:09:29;;;;;;;26.30;11.05;;;7.10;78.00;;;;;;5011830;28;20053;-69
2022/01/26 13:11:57;;;;;;;26.35;11.73;;;7.30;78.30;;;;;;5015482;28;20507;-69
2022/01/26 13:14:45;;;;;;;24.98;12.20;;;7.40;78.60;;;;;;5016371;28;20104;-66
2022/01/26 13:17:32;;;;;;;22.60;11.05;;;7.60;77.50;;;;;;5007918;28;20576;-67
2022/01/26 13:30:51;;;;;;;27.48;12.25;;;8.00;76.20;;;;;;5003128;28;20547;-67
2022/01/26 13:33:40;;;;;;;25.90;12.93;;;8.10;77.20;;;;;;5005609;28;20034;-70
2022/01/26 13:36:27;;;;;;;27.50;12.27;;;8.10;76.10;;;;;;5002045;28;20117;-69
2022/01/26 13:39:01;;;;;;;26.50;12.88;;;8.00;75.50;;;;;;5001627;28;20033;-68
2022/01/26 13:49:28;;;;;;;23.70;11.98;;;8.10;76.40;;;;;;5005961;28;20033;-68
2022/01/26 13:52:17;;;;;;;25.50;12.73;;;8.00;76.10;;;;;;5005743;28;20037;-66
2022/01/26 14:00:31;;;;;;;;;;;8.10;75.30;;;;;;4981269;28;20039;-69
2022/01/26 14:03:00;;;;;;;31.10;15.02;;;8.00;75.20;;;;;;4979770;28;20371;-69
2022/01/26 14:05:25;;;;;;;25.92;13.10;;;7.90;74.60;;;;;;4980489;28;20038;-70
2022/01/26 14:07:56;;;;;;;25.88;12.70;;;7.70;74.30;;;;;;4979127;28;20211;-69
2022/01/26 14:10:21;;;;;;;22.05;11.65;;;7.70;74.90;;;;;;4982386;28;20090;-69
2022/01/26 14:12:48;;;;;;;26.90;13.45;;;7.80;75.40;;;;;;4978753;28;20039;-69
2022/01/26 14:15:20;;;;;;;27.75;13.32;;;7.90;74.60;;;;;;4984669;28;20044;-66
2022/01/26 14:25:30;;;;;;;26.77;13.38;;;8.20;74.80;;;;;;4987629;28;20034;-69
2022/01/26 14:28:03;;;;;;;27.63;13.57;;;8.20;74.40;;;;;;4987408;28;20492;-70
2022/01/26 15:40:27;;;;;;;23.48;11.45;;;7.30;76.00;;;;;;4954583;28;20064;-67
2022/01/26 16:20:07;;;;;;;22.15;10.23;;;7.40;75.80;;;;;;5011347;28;20504;-69
2022/01/26 16:39:06;;;;;;;24.50;11.23;;;7.30;76.60;;;;;;4961003;28;20027;-70
2022/01/26 17:46:41;;;;;;;25.10;12.55;;;7.30;76.80;;;;;;4922174;29;20477;-67
2022/01/26 17:46:57;;;;;;;21.48;11.07;;;7.30;77.00;;;;;;4933195;29;20118;-74
2022/01/26 18:16:32;;;;;;;24.35;12.13;;;7.10;76.70;;;;;;5015303;28;20034;-79
2022/01/26 18:33:28;;;;;;;30.13;14.02;;;7.10;77.20;;;;;;5010833;28;20067;-68
2022/01/26 18:49:21;;;;;;;26.80;12.75;;;7.20;76.90;;;;;;5011601;28;20408;-69
2022/01/26 18:51:52;;;;;;;28.30;13.63;;;7.20;77.00;;;;;;5018613;28;20022;-70
2022/01/26 18:54:18;;;;;;;27.80;14.20;;;7.10;77.00;;;;;;5016365;28;20464;-69
2022/01/26 18:56:46;;;;;;;31.98;15.25;;;7.10;76.90;;;;;;5016014;28;20109;-69
2022/01/26 18:59:12;;;;;;;27.05;13.98;;;7.20;77.10;;;;;;5016007;28;20057;-69
2022/01/26 19:01:38;;;;;;;29.08;14.30;;;7.20;77.20;;;;;;5007283;28;20017;-69
2022/01/26 19:04:04;;;;;;;29.95;14.35;;;7.20;77.20;;;;;;5003762;28;20093;-70
2022/01/26 19:06:29;;;;;;;31.45;15.80;;;7.20;77.20;;;;;;4996248;28;20081;-70
2022/01/26 19:08:55;;;;;;;31.88;15.18;;;7.20;77.20;;;;;;5005036;28;20030;-69
2022/01/26 19:11:22;;;;;;;29.90;14.27;;;7.20;77.10;;;;;;5009204;28;20032;-69
2022/01/26 19:13:49;;;;;;;29.27;15.05;;;7.20;77.30;;;;;;5009246;28;20029;-69
2022/01/26 19:24:43;;;;;;;26.13;12.88;;;7.20;77.20;;;;;;4968404;28;20090;-70
2022/01/26 19:27:58;;;;;;;28.17;13.75;;;7.20;77.20;;;;;;4963627;28;20042;-70
2022/01/26 19:32:54;;;;;;;25.23;12.75;;;7.20;77.20;;;;;;4965627;28;20166;-70
2022/01/26 19:46:26;;;;;;;22.50;11.68;;;7.30;77.40;;;;;;4958394;28;20085;-74
2022/01/26 19:51:43;;;;;;;26.00;12.57;;;7.30;77.20;;;;;;4966665;28;20045;-69